Time;durP1;ratioP1;P1;durP2;ratioP2;P2;SDS_P1;SDS_P2;PMS_P1;PMS_P2;Temp;Humidity;BMP_temperature;BMP_pressure;BME280_temperature;BME280_humidity;BME280_pressure;Samples;Min_cycle;Max_cycle;Signal;HPM_P1;HPM_P2
2023/05/08 00:04:16;;;;;;;4.50;3.30;;;;;;;9.16;62.30;100012.23;223911;181;145230;-71
2023/05/08 00:09:20;;;;;;;4.80;3.20;;;;;;;9.13;62.14;100016.40;223850;182;138299;-71
2023/05/08 00:14:23;;;;;;;4.40;3.00;;;;;;;9.15;62.18;100022.67;223894;182;137010;-70
2023/05/08 00:19:26;;;;;;;4.30;3.20;;;;;;;9.21;61.69;100018.73;223855;182;145847;-70
2023/05/08 00:24:30;;;;;;;4.50;3.40;;;;;;;9.11;61.66;100015.42;223831;181;138785;-70
2023/05/08 00:29:33;;;;;;;3.70;2.90;;;;;;;9.07;61.64;100013.99;223786;182;136882;-71
2023/05/08 00:34:37;;;;;;;5.70;3.40;;;;;;;8.93;61.43;100015.24;222879;182;145711;-70
2023/05/08 00:39:40;;;;;;;4.90;3.10;;;;;;;8.86;61.47;100022.27;223817;182;138375;-70
2023/05/08 00:44:44;;;;;;;4.10;3.00;;;;;;;8.83;61.57;100022.56;223827;182;137003;-69
2023/05/08 00:49:48;;;;;;;4.70;2.90;;;;;;;8.77;61.43;100027.90;223824;182;145762;-70
2023/05/08 00:54:53;;;;;;;4.10;2.90;;;;;;;8.73;61.49;100027.37;223712;182;138829;-69
2023/05/08 00:59:58;;;;;;;4.20;3.10;;;;;;;8.73;61.53;100034.27;223748;182;136457;-70
2023/05/08 01:05:02;;;;;;;4.30;3.10;;;;;;;8.70;61.83;100041.96;222444;182;145200;-70
2023/05/08 01:10:06;;;;;;;4.10;2.90;;;;;;;8.67;62.00;100039.96;222871;182;139030;-70
2023/05/08 01:15:19;;;;;;;3.10;2.70;;;;;;;8.67;61.97;100046.16;223268;182;137536;-71
2023/05/08 01:20:37;;;;;;;5.10;3.20;;;;;;;8.65;62.18;100054.73;222696;182;146859;-71
2023/05/08 01:26:02;;;;;;;4.50;3.40;;;;;;;8.64;62.35;100055.49;223801;182;138427;-70
2023/05/08 01:31:39;;;;;;;4.30;3.30;;;;;;;8.68;62.44;100050.35;222477;182;136629;-71
2023/05/08 01:37:10;;;;;;;8.00;4.10;;;;;;;8.66;62.91;100053.63;222950;182;147999;-70
2023/05/08 01:42:35;;;;;;;5.00;3.70;;;;;;;8.63;62.57;100052.87;223784;181;138991;-69
2023/05/08 01:47:41;;;;;;;4.70;3.70;;;;;;;8.57;62.41;100047.97;219723;181;137568;-69
2023/05/08 01:52:49;;;;;;;4.80;3.50;;;;;;;8.55;62.44;100053.52;222969;182;147436;-70
2023/05/08 01:57:56;;;;;;;4.90;4.00;;;;;;;8.55;62.21;100057.03;223678;181;139269;-70
2023/05/08 02:03:01;;;;;;;3.30;2.70;;;;;;;8.54;62.08;100055.15;223806;181;137298;-69
2023/05/08 02:08:08;;;;;;;3.70;3.20;;;;;;;8.53;62.09;100053.23;223261;182;147316;-70
2023/05/08 02:13:17;;;;;;;3.90;3.20;;;;;;;8.53;62.02;100052.35;223699;182;138872;-70
2023/05/08 02:18:24;;;;;;;3.40;3.10;;;;;;;8.49;61.99;100051.44;223843;182;136357;-70
2023/05/08 02:23:29;;;;;;;4.30;2.90;;;;;;;8.51;62.12;100047.12;223751;182;148034;-70
2023/05/08 02:28:34;;;;;;;3.60;3.00;;;;;;;8.51;62.00;100060.73;223704;181;138577;-70
2023/05/08 02:33:41;;;;;;;5.60;2.80;;;;;;;8.49;61.83;100063.27;223147;181;136727;-70
2023/05/08 02:38:50;;;;;;;3.70;2.70;;;;;;;8.46;61.82;100063.57;223712;181;148268;-71
2023/05/08 02:43:54;;;;;;;4.50;2.70;;;;;;;8.44;61.78;100065.79;223714;182;138357;-72
2023/05/08 02:49:03;;;;;;;80.10;59.00;;;;;;;8.41;61.70;100071.35;223762;182;136766;-70
2023/05/08 02:54:10;;;;;;;5.00;3.70;;;;;;;8.42;61.77;100073.96;223778;181;147180;-71
2023/05/08 02:59:27;;;;;;;42.10;29.80;;;;;;;8.43;61.38;100076.06;223778;182;138399;-72
2023/05/08 03:04:39;;;;;;;5.80;3.60;;;;;;;8.40;61.01;100078.12;223758;182;136734;-71
2023/05/08 03:09:46;;;;;;;4.00;3.00;;;;;;;8.34;61.10;100083.98;221966;182;147092;-70
2023/05/08 03:15:05;;;;;;;4.70;3.20;;;;;;;8.33;61.12;100082.61;223853;182;138915;-69
2023/05/08 03:20:15;;;;;;;5.20;3.20;;;;;;;8.31;60.79;100083.20;223657;182;137040;-69
2023/05/08 03:25:20;;;;;;;4.70;3.20;;;;;;;8.26;60.94;100086.17;223793;182;148253;-69
2023/05/08 03:30:26;;;;;;;4.40;3.30;;;;;;;8.20;60.80;100085.15;223803;181;138817;-69
2023/05/08 03:35:41;;;;;;;46.20;36.80;;;;;;;8.15;61.09;100085.52;223296;182;137509;-70
2023/05/08 03:40:45;;;;;;;8.50;6.00;;;;;;;8.17;61.20;100089.36;223766;182;147502;-69
2023/05/08 03:45:50;;;;;;;4.20;3.30;;;;;;;8.14;60.96;100089.80;223520;182;138283;-70
2023/05/08 03:50:54;;;;;;;5.70;3.70;;;;;;;8.11;61.13;100093.45;223377;182;136627;-70
2023/05/08 03:55:59;;;;;;;4.10;3.20;;;;;;;8.09;60.85;100096.52;223766;182;146851;-71
2023/05/08 04:01:23;;;;;;;5.30;3.30;;;;;;;8.08;60.89;100095.67;223774;182;138509;-69
2023/05/08 04:06:39;;;;;;;198.60;135.70;;;;;;;8.05;60.99;100099.65;221840;182;137410;-70
2023/05/08 04:12:03;;;;;;;12.10;7.40;;;;;;;8.10;60.95;100101.61;223748;182;147837;-71
2023/05/08 04:17:14;;;;;;;5.00;3.70;;;;;;;8.04;60.56;100110.81;223764;182;139148;-71
2023/05/08 04:22:22;;;;;;;3.70;3.30;;;;;;;7.98;60.88;100122.88;223814;182;136726;-71
2023/05/08 04:27:26;;;;;;;6.10;3.60;;;;;;;7.98;61.07;100126.23;223760;182;157805;-71
2023/05/08 04:32:38;;;;;;;6.20;3.50;;;;;;;7.99;61.09;100130.98;223775;182;138203;-71
2023/05/08 04:37:46;;;;;;;5.30;3.40;;;;;;;7.97;61.00;100137.56;223788;182;138579;-71
2023/05/08 04:42:50;;;;;;;7.60;3.20;;;;;;;7.98;61.18;100141.59;223218;181;147320;-71
2023/05/08 04:47:54;;;;;;;5.50;3.60;;;;;;;8.00;61.03;100146.14;223779;182;138310;-69
2023/05/08 04:52:57;;;;;;;6.10;3.30;;;;;;;8.03;61.24;100152.74;221471;182;137295;-70
2023/05/08 04:58:01;;;;;;;5.40;3.50;;;;;;;8.06;61.27;100156.36;223792;182;147665;-70
2023/05/08 05:03:05;;;;;;;6.60;3.40;;;;;;;8.07;61.16;100163.40;223790;182;140439;-70
2023/05/08 05:08:09;;;;;;;4.70;3.40;;;;;;;8.06;61.25;100163.61;223791;182;136608;-70
2023/05/08 05:13:12;;;;;;;6.30;3.10;;;;;;;8.11;61.44;100171.58;223866;181;147213;-70
2023/05/08 05:18:15;;;;;;;5.40;3.10;;;;;;;8.20;61.49;100177.63;221938;183;138744;-71
2023/05/08 05:23:19;;;;;;;6.40;3.40;;;;;;;8.26;61.32;100179.89;223135;182;136714;-69
2023/05/08 05:28:22;;;;;;;5.70;3.20;;;;;;;8.33;61.25;100184.61;222404;182;147547;-71
2023/05/08 05:33:26;;;;;;;7.30;3.30;;;;;;;8.36;61.03;100183.62;219697;182;139403;-70
2023/05/08 05:38:29;;;;;;;8.30;4.90;;;;;;;8.40;60.79;100189.02;222835;182;136662;-71
2023/05/08 05:43:33;;;;;;;6.90;2.90;;;;;;;8.43;60.75;100190.67;223797;182;147372;-71
2023/05/08 05:48:40;;;;;;;4.90;3.00;;;;;;;8.44;60.22;100192.58;223730;182;138464;-71
2023/05/08 05:53:44;;;;;;;4.70;2.90;;;;;;;8.46;60.23;100196.04;222910;182;136750;-70
2023/05/08 05:58:47;;;;;;;6.40;3.30;;;;;;;8.54;60.11;100205.84;223794;182;147571;-70
2023/05/08 06:03:51;;;;;;;3.90;2.90;;;;;;;8.58;60.09;100209.77;223571;179;138356;-70
2023/05/08 06:08:55;;;;;;;3.50;2.80;;;;;;;8.62;59.97;100214.40;223582;182;137076;-71
2023/05/08 06:13:58;;;;;;;3.80;2.70;;;;;;;8.64;59.88;100214.52;222096;181;147975;-70
2023/05/08 06:19:02;;;;;;;6.30;2.90;;;;;;;8.68;59.51;100217.54;221502;181;138899;-70
2023/05/08 06:24:06;;;;;;;5.50;3.10;;;;;;;8.73;59.35;100220.90;223755;182;138458;-70
2023/05/08 06:29:09;;;;;;;7.20;3.30;;;;;;;8.77;59.42;100220.05;223780;182;147914;-70
2023/05/08 06:34:13;;;;;;;4.40;3.00;;;;;;;8.80;59.65;100230.05;223820;182;138963;-70
2023/05/08 06:39:17;;;;;;;6.00;3.20;;;;;;;8.79;59.93;100238.41;223875;182;136782;-70
2023/05/08 06:44:20;;;;;;;6.70;3.60;;;;;;;8.82;59.85;100234.77;223840;182;148138;-70
2023/05/08 06:49:23;;;;;;;5.70;2.80;;;;;;;8.94;59.51;100237.52;222594;181;137953;-72
2023/05/08 06:54:26;;;;;;;5.60;3.20;;;;;;;9.00;59.36;100236.20;223805;182;136813;-69
2023/05/08 06:59:41;;;;;;;6.40;3.00;;;;;;;9.31;59.17;100231.16;223528;182;147754;-70
2023/05/08 07:04:45;;;;;;;6.00;3.50;;;;;;;9.55;58.80;100230.45;223588;182;138063;-69
2023/05/08 07:09:48;;;;;;;5.90;3.60;;;;;;;9.75;58.40;100235.84;222008;182;138113;-75
2023/05/08 07:14:51;;;;;;;4.60;3.10;;;;;;;9.85;57.35;100240.98;223742;181;147712;-75
2023/05/08 07:19:57;;;;;;;;;;;;;;;9.75;57.01;100242.95;223812;182;138941;-75
2023/05/08 07:25:01;;;;;;;4.20;3.00;;;;;;;9.80;57.21;100233.20;223327;183;132009;-73
2023/05/08 07:30:05;;;;;;;4.90;2.60;;;;;;;9.83;57.17;100238.58;222049;182;147602;-74
2023/05/08 07:35:12;;;;;;;3.30;2.60;;;;;;;9.83;56.76;100246.35;223366;182;140149;-75
2023/05/08 07:40:16;;;;;;;3.70;2.80;;;;;;;9.90;56.28;100249.65;223765;181;137134;-76
2023/05/08 07:45:19;;;;;;;57.20;39.20;;;;;;;9.97;56.23;100249.36;223385;182;148173;-75
2023/05/08 07:50:24;;;;;;;10.20;7.60;;;;;;;10.08;56.76;100254.58;220229;178;138813;-79
2023/05/08 07:55:32;;;;;;;4.40;3.00;;;;;;;10.25;56.63;100254.45;223685;181;138149;-79
2023/05/08 08:00:36;;;;;;;4.60;2.80;;;;;;;10.32;55.95;100255.92;223811;181;148876;-79
2023/05/08 08:05:40;;;;;;;5.10;3.00;;;;;;;10.36;55.69;100257.89;223755;182;138407;-79
2023/05/08 08:10:44;;;;;;;4.90;2.90;;;;;;;10.41;55.18;100253.42;223797;181;137180;-78
2023/05/08 08:15:47;;;;;;;551.50;361.80;;;;;;;10.53;55.52;100249.01;223621;182;147324;-79
2023/05/08 08:20:50;;;;;;;15.70;7.30;;;;;;;10.71;54.47;100259.43;222887;182;138897;-77
2023/05/08 08:25:54;;;;;;;24.60;3.70;;;;;;;10.79;52.89;100252.18;223785;182;136816;-76
2023/05/08 08:30:57;;;;;;;4.20;2.40;;;;;;;10.88;52.32;100251.06;223437;181;149251;-77
2023/05/08 08:36:02;;;;;;;2.90;2.10;;;;;;;10.92;52.73;100246.42;223683;182;141377;-77
2023/05/08 08:41:06;;;;;;;4.40;2.30;;;;;;;11.00;53.10;100247.55;223739;182;136938;-77
2023/05/08 08:46:14;;;;;;;3.00;2.30;;;;;;;11.04;52.52;100250.92;223734;182;147223;-77
2023/05/08 08:52:02;;;;;;;4.20;2.30;;;;;;;11.05;52.62;100245.71;223715;182;139403;-78
2023/05/08 08:57:07;;;;;;;5.10;2.50;;;;;;;11.17;52.17;100246.41;223737;182;137170;-77
2023/05/08 09:02:16;;;;;;;7.60;2.50;;;;;;;11.30;52.38;100251.65;223859;182;147446;-77
2023/05/08 09:07:23;;;;;;;4.50;2.50;;;;;;;11.45;52.04;100260.61;223696;181;138816;-78
2023/05/08 09:12:26;;;;;;;5.40;2.60;;;;;;;11.51;51.65;100258.54;223781;181;137431;-77
2023/05/08 09:17:30;;;;;;;3.10;2.70;;;;;;;11.57;51.76;100260.92;223479;208;147351;-78
2023/05/08 09:22:37;;;;;;;8.00;2.90;;;;;;;11.67;50.98;100257.64;223504;183;138721;-78
2023/05/08 09:27:41;;;;;;;5.30;2.90;;;;;;;11.84;51.27;100255.05;223563;215;137905;-77
2023/05/08 09:32:45;;;;;;;198.60;125.00;;;;;;;11.95;51.46;100258.63;222365;192;147684;-73
2023/05/08 09:38:05;;;;;;;9.80;6.00;;;;;;;12.04;51.16;100248.20;223409;182;139528;-78
2023/05/08 09:43:12;;;;;;;7.60;3.40;;;;;;;12.12;51.97;100248.90;223448;206;137624;-69
2023/05/08 09:48:15;;;;;;;6.50;3.10;;;;;;;12.09;51.10;100263.29;223468;218;148253;-69
2023/05/08 09:53:19;;;;;;;9.10;3.10;;;;;;;11.97;51.22;100259.06;223450;202;139179;-69
2023/05/08 09:58:23;;;;;;;6.30;2.80;;;;;;;11.95;51.41;100262.90;223474;210;137060;-69
2023/05/08 10:03:45;;;;;;;4.10;3.50;;;;;;;11.92;51.01;100267.67;223477;217;147388;-69
2023/05/08 10:09:07;;;;;;;6.40;3.00;;;;;;;11.96;51.20;100268.91;223459;185;139032;-68
2023/05/08 10:14:10;;;;;;;4.90;2.90;;;;;;;12.00;51.05;100264.23;223514;217;137978;-67
2023/05/08 10:19:19;;;;;;;4.60;2.70;;;;;;;12.00;51.00;100260.68;223405;195;147804;-68
2023/05/08 10:24:32;;;;;;;3.80;2.80;;;;;;;11.96;50.39;100261.09;223419;217;138240;-68
2023/05/08 10:29:51;;;;;;;4.90;2.30;;;;;;;11.93;50.74;100259.46;223493;195;137139;-66
2023/05/08 10:35:02;;;;;;;6.90;2.70;;;;;;;11.99;50.95;100255.58;223484;217;146947;-66
2023/05/08 10:40:05;;;;;;;3.50;2.80;;;;;;;12.24;50.67;100248.30;223482;184;138885;-66
2023/05/08 10:45:10;;;;;;;5.30;2.40;;;;;;;12.47;50.31;100243.23;223436;194;137459;-66
2023/05/08 10:50:22;;;;;;;5.00;2.30;;;;;;;12.78;49.31;100240.79;223513;217;147965;-66
2023/05/08 10:55:29;;;;;;;3.10;2.20;;;;;;;12.91;49.29;100240.61;223458;217;138494;-68
2023/05/08 11:00:55;;;;;;;7.30;2.40;;;;;;;12.82;48.86;100232.19;223469;195;137140;-67
2023/05/08 11:05:59;;;;;;;6.20;2.40;;;;;;;12.74;49.22;100232.09;223437;217;146808;-66
2023/05/08 11:11:16;;;;;;;5.40;2.30;;;;;;;12.79;49.41;100234.48;223457;185;138227;-66
2023/05/08 11:16:54;;;;;;;3.30;2.10;;;;;;;12.99;49.39;100235.77;223544;185;137496;-67
2023/05/08 11:22:22;;;;;;;8.00;2.30;;;;;;;13.05;49.23;100230.81;223437;217;147325;-67
2023/05/08 11:27:34;;;;;;;8.90;2.40;;;;;;;12.98;49.06;100224.58;223427;217;138670;-67
2023/05/08 11:33:02;;;;;;;4.60;2.10;;;;;;;13.00;49.42;100217.52;223454;217;138044;-69
2023/05/08 11:38:35;;;;;;;3.00;2.00;;;;;;;13.09;49.28;100219.39;223496;217;147585;-67
2023/05/08 11:43:44;;;;;;;5.70;3.00;;;;;;;13.08;49.05;100223.92;223397;196;138460;-68
2023/05/08 11:48:47;;;;;;;4.10;2.10;;;;;;;12.99;49.06;100216.84;223467;184;137726;-68
2023/05/08 11:53:51;;;;;;;5.70;2.10;;;;;;;13.00;49.22;100217.71;223475;217;146983;-67
2023/05/08 11:59:04;;;;;;;5.30;2.20;;;;;;;13.09;49.55;100219.76;223496;206;138115;-67
2023/05/08 12:04:10;;;;;;;8.80;2.10;;;;;;;13.23;48.94;100217.20;223517;217;137423;-68
2023/05/08 12:09:16;;;;;;;8.20;2.20;;;;;;;13.36;48.74;100212.08;223466;210;147580;-68
2023/05/08 12:14:22;;;;;;;5.20;2.30;;;;;;;13.42;48.20;100203.20;223429;217;139497;-68
2023/05/08 12:19:25;;;;;;;5.50;2.10;;;;;;;13.47;47.79;100204.48;223524;185;137041;-68
2023/05/08 12:24:29;;;;;;;2.90;2.10;;;;;;;13.59;47.69;100202.41;223420;206;147129;-68
2023/05/08 12:29:35;;;;;;;3.10;1.80;;;;;;;13.53;47.25;100208.79;223388;188;140616;-69
2023/05/08 12:34:40;;;;;;;;;;;;;;;13.40;47.08;100204.34;223438;214;137176;-68
2023/05/08 12:39:46;;;;;;;11.30;2.20;;;;;;;13.33;47.35;100199.92;223584;185;147559;-67
2023/05/08 12:44:51;;;;;;;5.90;2.30;;;;;;;13.39;47.37;100197.98;223440;217;139514;-66
2023/05/08 12:49:56;;;;;;;3.30;1.90;;;;;;;13.60;47.20;100189.36;223447;186;137373;-66
2023/05/08 12:54:59;;;;;;;3.40;2.20;;;;;;;13.80;47.53;100188.05;223502;183;148547;-69
2023/05/08 13:00:12;;;;;;;10.10;1.80;;;;;;;13.71;46.54;100194.39;223627;183;138861;-69
2023/05/08 13:05:18;;;;;;;6.90;2.10;;;;;;;13.58;45.46;100199.24;223647;183;141025;-68
2023/05/08 13:10:22;;;;;;;5.60;1.70;;;;;;;13.46;45.30;100196.00;223767;184;148538;-68
2023/05/08 13:15:27;;;;;;;;;;;;;;;13.29;45.95;100189.27;223599;183;138430;-68
2023/05/08 13:25:29;;;;;;;6.00;1.80;;;;;;;13.26;46.68;100190.69;220959;194;666220;-77
2023/05/08 13:30:35;;;;;;;4.80;1.90;;;;;;;13.40;46.49;100190.09;222517;183;136634;-79
2023/05/08 13:35:39;;;;;;;3.50;1.80;;;;;;;13.55;45.84;100188.23;223480;185;144089;-81
2023/05/08 13:40:43;;;;;;;6.60;1.90;;;;;;;13.62;45.43;100187.45;222121;183;138284;-81
2023/05/08 13:45:46;;;;;;;5.90;1.90;;;;;;;13.68;45.31;100185.69;222596;184;137079;-81
2023/05/08 13:50:50;;;;;;;6.40;2.30;;;;;;;13.73;45.15;100183.41;221516;180;143589;-80
2023/05/08 13:55:53;;;;;;;3.80;1.80;;;;;;;14.27;45.46;100177.29;223595;183;138381;-79
2023/05/08 14:00:57;;;;;;;6.10;2.00;;;;;;;14.73;44.23;100173.84;223712;184;136559;-80
2023/05/08 14:06:07;;;;;;;2.80;1.70;;;;;;;14.59;43.29;100178.95;223402;184;144001;-79
2023/05/08 14:11:14;;;;;;;4.30;1.70;;;;;;;14.29;42.90;100179.66;223519;184;138469;-79
2023/05/08 14:16:51;;;;;;;8.70;1.80;;;;;;;14.03;43.63;100184.40;223769;184;137382;-80
2023/05/08 14:22:31;;;;;;;7.90;2.10;;;;;;;13.81;44.04;100177.59;223594;184;147406;-77
2023/05/08 14:27:57;;;;;;;6.90;2.30;;;;;;;13.68;44.24;100174.27;223493;183;139207;31
2023/05/08 14:33:00;;;;;;;4.70;1.70;;;;;;;13.62;44.85;100168.35;223694;184;136382;-69
2023/05/08 14:38:06;;;;;;;7.30;2.40;;;;;;;13.70;44.95;100171.67;223630;184;145671;-71
2023/05/08 14:43:26;;;;;;;10.90;2.00;;;;;;;13.77;44.79;100174.30;223593;184;140424;-70
2023/05/08 14:48:56;;;;;;;7.70;2.40;;;;;;;13.79;43.61;100171.67;223455;185;140604;-71
2023/05/08 14:53:59;;;;;;;7.20;2.10;;;;;;;13.77;43.88;100172.70;223610;184;145386;-69
2023/05/08 14:59:06;;;;;;;5.90;2.00;;;;;;;13.79;43.88;100176.30;223513;184;140274;-69
2023/05/08 15:25:35;;;;;;;3.30;1.70;;;;;;;13.80;44.32;100168.77;221489;193;666669;-76
2023/05/08 15:30:39;;;;;;;5.10;2.10;;;;;;;13.68;44.70;100171.26;223573;183;137426;-77
2023/05/08 15:35:47;;;;;;;7.10;2.50;;;;;;;13.76;44.79;100171.16;223698;184;144907;-77
2023/05/08 15:40:59;;;;;;;;;;;;;;;14.03;44.79;100163.46;223590;183;139034;-76
2023/05/08 15:46:02;;;;;;;3.90;2.00;;;;;;;14.41;44.55;100159.48;223791;183;127520;-74
2023/05/08 15:51:12;;;;;;;5.80;2.50;;;;;;;14.63;44.54;100159.25;223738;183;143356;-75
2023/05/08 15:57:08;;;;;;;8.70;2.40;;;;;;;14.76;43.37;100153.46;223648;183;138425;-73
2023/05/08 16:02:13;;;;;;;11.30;2.30;;;;;;;14.82;42.52;100147.39;222933;183;136419;-72
2023/05/08 16:07:47;;;;;;;2.80;1.80;;;;;;;14.89;42.54;100144.98;223768;182;146137;-74
2023/05/08 16:12:59;;;;;;;3.20;1.90;;;;;;;14.64;42.33;100146.72;223688;182;138880;-74
2023/05/08 16:18:11;;;;;;;5.50;2.40;;;;;;;14.32;42.25;100141.27;223771;182;136282;-73
2023/05/08 16:23:26;;;;;;;9.60;2.60;;;;;;;14.12;42.45;100136.42;223868;182;145357;-74
2023/05/08 16:28:56;;;;;;;4.20;2.10;;;;;;;13.90;42.94;100138.92;223617;183;138502;-75
2023/05/08 16:34:15;;;;;;;6.50;2.20;;;;;;;13.71;43.24;100143.23;222849;182;137549;-73
2023/05/08 16:40:13;;;;;;;6.60;2.10;;;;;;;13.60;43.44;100147.25;223261;184;145730;-72
2023/05/08 16:45:18;;;;;;;6.50;2.30;;;;;;;13.48;44.04;100150.80;223445;184;138810;-73
2023/05/08 16:50:35;;;;;;;8.90;2.50;;;;;;;13.48;44.09;100148.09;223537;185;136815;-73
2023/05/08 16:56:14;;;;;;;7.60;2.30;;;;;;;13.48;44.47;100149.19;223461;183;146071;-72
2023/05/08 17:01:39;;;;;;;6.20;2.40;;;;;;;13.42;44.35;100149.52;223334;183;138537;-73
2023/05/08 17:07:18;;;;;;;24.20;17.10;;;;;;;13.38;44.66;100148.84;223505;183;136242;-73
2023/05/08 17:12:27;;;;;;;10.10;5.90;;;;;;;13.38;45.21;100146.55;223526;183;145962;-73
2023/05/08 17:24:19;;;;;;;4.70;2.30;;;;;;;13.19;45.42;100155.19;223730;182;137214;-73
2023/05/08 17:35:56;;;;;;;3.10;2.00;;;;;;;13.06;45.30;100161.27;223731;182;138700;-75
2023/05/08 17:41:14;;;;;;;4.10;2.20;;;;;;;13.03;45.60;100159.81;223780;181;136587;-73
2023/05/08 17:46:21;;;;;;;3.60;2.00;;;;;;;13.01;45.98;100159.23;223797;181;145701;-76
2023/05/08 17:51:27;;;;;;;7.00;2.30;;;;;;;12.92;46.17;100166.84;223661;181;138464;-76
2023/05/08 17:56:31;;;;;;;4.90;2.70;;;;;;;12.84;46.51;100164.41;223695;181;136556;-76
2023/05/08 18:01:38;;;;;;;3.90;2.70;;;;;;;12.75;46.65;100161.83;223675;181;145270;-73
2023/05/08 18:06:54;;;;;;;6.00;2.60;;;;;;;12.67;47.30;100158.56;223714;181;139244;-74
2023/05/08 18:12:39;;;;;;;6.30;3.10;;;;;;;12.61;47.57;100162.08;223699;181;136943;-75
2023/05/08 18:18:26;;;;;;;5.70;2.80;;;;;;;12.51;48.25;100168.29;223704;181;148037;-74
2023/05/08 18:24:13;;;;;;;7.80;3.90;;;;;;;12.45;48.70;100173.77;223784;181;140636;-74
2023/05/08 18:29:43;;;;;;;6.40;3.50;;;;;;;12.37;48.73;100180.40;223564;181;136928;-76
2023/05/08 18:35:22;;;;;;;5.90;3.50;;;;;;;12.31;48.68;100177.86;223667;183;148178;-76
2023/05/08 18:40:35;;;;;;;8.50;3.80;;;;;;;12.26;49.40;100183.77;223684;183;139032;-74
2023/05/08 18:46:11;;;;;;;67.00;47.80;;;;;;;12.19;50.30;100189.84;223545;182;136509;-74
2023/05/08 18:52:09;;;;;;;12.10;5.50;;;;;;;12.15;50.96;100194.34;223423;184;146064;-74
2023/05/08 18:57:54;;;;;;;7.90;3.70;;;;;;;11.96;50.70;100195.46;223626;184;140565;-75
2023/05/08 19:03:05;;;;;;;7.50;3.80;;;;;;;11.79;51.35;100204.97;223460;184;137104;-75
2023/05/08 19:08:24;;;;;;;8.50;3.90;;;;;;;11.63;51.81;100205.70;223449;185;146154;-74
2023/05/08 19:13:30;;;;;;;7.90;4.30;;;;;;;11.52;52.15;100208.15;223683;183;138714;-74
2023/05/08 19:18:36;;;;;;;8.70;4.50;;;;;;;11.44;52.81;100208.91;222966;181;137242;-76
2023/05/08 19:23:43;;;;;;;10.40;4.70;;;;;;;11.34;52.91;100210.08;222579;181;145098;-76
2023/05/08 19:28:47;;;;;;;9.80;5.30;;;;;;;11.23;53.11;100208.14;223725;180;138429;-76
2023/05/08 19:33:51;;;;;;;9.40;5.40;;;;;;;11.14;53.00;100212.24;223021;181;137481;-76
2023/05/08 19:38:54;;;;;;;11.60;5.40;;;;;;;11.09;53.39;100212.64;223803;181;145743;-74
2023/05/08 19:44:00;;;;;;;9.00;5.40;;;;;;;11.02;53.60;100214.76;223756;181;139622;-74
2023/05/08 19:49:04;;;;;;;59.50;44.40;;;;;;;11.03;54.81;100212.42;223785;181;136883;-73
2023/05/08 19:54:07;;;;;;;14.40;7.20;;;;;;;11.15;54.74;100201.59;223550;181;145927;-76
2023/05/08 19:59:13;;;;;;;12.00;5.90;;;;;;;11.00;53.94;100202.39;223173;181;138948;-77
2023/05/08 20:04:17;;;;;;;13.10;6.20;;;;;;;10.88;54.13;100196.21;223829;181;137464;-74
2023/05/08 20:09:20;;;;;;;11.70;6.20;;;;;;;10.74;54.45;100193.45;223785;181;146216;-74
2023/05/08 20:14:23;;;;;;;11.20;6.60;;;;;;;10.63;54.69;100188.46;223719;178;138662;-75
2023/05/08 20:19:27;;;;;;;11.10;6.70;;;;;;;10.52;54.86;100188.05;223845;181;136904;-74
2023/05/08 20:24:30;;;;;;;10.40;6.20;;;;;;;10.41;55.09;100188.52;223516;181;145936;-74
2023/05/08 20:29:34;;;;;;;8.40;5.80;;;;;;;10.31;55.50;100187.85;223732;181;137758;-72
2023/05/08 20:34:37;;;;;;;11.40;6.10;;;;;;;10.24;55.66;100183.00;223697;181;136397;-72
2023/05/08 20:39:41;;;;;;;10.70;5.90;;;;;;;10.19;55.97;100180.71;223728;181;144989;-72
2023/05/08 20:44:44;;;;;;;9.00;5.20;;;;;;;10.12;56.29;100183.66;223743;181;138856;-72
2023/05/08 20:49:48;;;;;;;11.10;5.60;;;;;;;10.03;56.16;100181.91;223730;181;137316;-72
2023/05/08 20:54:51;;;;;;;11.50;6.30;;;;;;;9.96;56.35;100181.68;223660;181;145590;-73
2023/05/08 20:59:55;;;;;;;11.40;5.90;;;;;;;9.87;56.48;100180.25;223729;181;138287;-72
2023/05/08 21:04:58;;;;;;;11.20;5.90;;;;;;;9.81;56.88;100179.30;223785;182;137316;-73
2023/05/08 21:10:02;;;;;;;10.80;6.20;;;;;;;9.75;56.95;100174.40;223831;181;147357;-72
2023/05/08 21:15:06;;;;;;;11.10;6.20;;;;;;;9.69;57.00;100174.23;223742;181;138826;-72
2023/05/08 21:20:10;;;;;;;10.30;6.30;;;;;;;9.63;57.28;100170.44;223800;181;136778;-72
2023/05/08 21:25:14;;;;;;;12.10;6.50;;;;;;;9.53;57.71;100170.46;223712;181;145611;-74
2023/05/08 21:30:18;;;;;;;13.30;7.00;;;;;;;9.47;57.85;100169.64;223808;180;138035;-74
2023/05/08 21:35:21;;;;;;;14.90;7.50;;;;;;;9.44;57.98;100164.97;223793;181;136922;-75
2023/05/08 21:40:25;;;;;;;12.90;7.50;;;;;;;9.40;58.19;100156.80;223764;181;145169;-74
2023/05/08 21:45:31;;;;;;;14.20;7.40;;;;;;;9.32;58.26;100156.40;223704;181;140078;-74
2023/05/08 21:50:35;;;;;;;14.50;8.40;;;;;;;9.23;58.28;100157.98;223950;181;137166;-75
2023/05/08 21:55:42;;;;;;;15.70;8.10;;;;;;;9.17;58.81;100156.27;223715;180;145827;-75
2023/05/08 22:00:52;;;;;;;15.90;7.80;;;;;;;9.15;58.79;100155.48;222577;182;140582;-76
2023/05/08 22:06:10;;;;;;;12.40;7.70;;;;;;;9.13;58.86;100152.73;223629;181;137146;-76
2023/05/08 22:11:24;;;;;;;16.20;8.00;;;;;;;9.08;58.76;100146.20;223008;182;145527;-76
2023/05/08 22:16:44;;;;;;;14.50;7.10;;;;;;;9.00;58.93;100144.55;223382;182;138799;-66
2023/05/08 22:21:47;;;;;;;12.20;7.60;;;;;;;8.93;58.96;100140.74;223771;182;137119;-66
2023/05/08 22:26:50;;;;;;;12.40;7.50;;;;;;;8.88;59.00;100140.02;223706;182;145431;-66
2023/05/08 22:31:54;;;;;;;15.00;7.90;;;;;;;8.83;59.09;100139.69;223764;183;140760;-66
2023/05/08 22:36:58;;;;;;;12.70;7.60;;;;;;;8.84;59.23;100136.14;223763;183;137116;-66
2023/05/08 22:42:02;;;;;;;15.20;7.70;;;;;;;8.81;59.21;100131.11;223702;183;145209;-65
2023/05/08 22:47:05;;;;;;;14.50;8.00;;;;;;;8.76;59.30;100134.46;223774;183;138165;-65
2023/05/08 22:52:08;;;;;;;15.00;8.50;;;;;;;8.72;59.57;100131.23;223789;183;137727;-65
2023/05/08 22:57:13;;;;;;;14.00;7.60;;;;;;;8.67;59.84;100130.03;223711;183;145198;-64
2023/05/08 23:02:16;;;;;;;10.70;7.50;;;;;;;8.64;60.01;100131.38;223769;182;138153;-65
2023/05/08 23:07:19;;;;;;;15.30;8.80;;;;;;;8.59;60.18;100135.24;223748;183;137688;-66
2023/05/08 23:12:22;;;;;;;15.40;8.30;;;;;;;8.54;60.35;100130.33;223827;182;147265;-66
2023/05/08 23:17:25;;;;;;;14.00;9.00;;;;;;;8.52;60.53;100133.76;223694;183;138434;-66
2023/05/08 23:22:28;;;;;;;15.80;9.30;;;;;;;8.47;60.47;100127.91;223755;183;137180;-65
2023/05/08 23:27:32;;;;;;;13.20;9.10;;;;;;;8.45;60.57;100127.83;223726;183;145054;-65
2023/05/08 23:32:35;;;;;;;16.20;8.70;;;;;;;8.40;60.82;100125.52;223703;183;140629;-65
2023/05/08 23:37:40;;;;;;;14.90;8.80;;;;;;;8.36;61.07;100121.23;223744;183;138546;-66
2023/05/08 23:42:44;;;;;;;15.70;9.10;;;;;;;8.33;61.02;100121.86;223660;183;145033;-66
2023/05/08 23:47:48;;;;;;;13.20;9.00;;;;;;;8.27;61.24;100120.82;223658;182;138605;-65
2023/05/08 23:52:51;;;;;;;13.20;8.50;;;;;;;8.23;61.13;100107.52;223654;183;136161;-65
2023/05/08 23:57:55;;;;;;;14.10;9.00;;;;;;;8.18;61.43;100103.09;223662;183;145014;-65
